createdAt,value
2019-05-03T00:02:36.247Z,2.60
2019-05-03T00:05:06.163Z,2.97
2019-05-03T00:07:32.159Z,2.87
2019-05-03T00:09:58.130Z,2.37
2019-05-03T00:12:24.101Z,2.60
2019-05-03T00:14:52.355Z,2.77
2019-05-03T00:17:18.327Z,2.90
2019-05-03T00:19:44.346Z,3.00
2019-05-03T00:22:12.229Z,2.90
2019-05-03T00:24:38.215Z,2.73
2019-05-03T00:27:04.192Z,3.87
2019-05-03T00:29:32.352Z,3.00
2019-05-03T00:31:58.124Z,3.30
2019-05-03T00:34:26.307Z,2.40
2019-05-03T00:36:57.519Z,3.53
2019-05-03T00:39:25.382Z,4.20
2019-05-03T00:41:52.086Z,3.53
2019-05-03T00:44:18.155Z,3.13
2019-05-03T00:46:44.119Z,2.70
2019-05-03T00:49:11.939Z,2.40
2019-05-03T00:51:38.036Z,3.60
2019-05-03T00:54:04.068Z,3.40
2019-05-03T00:56:32.049Z,3.23
2019-05-03T00:58:58.667Z,2.93
2019-05-03T01:01:24.755Z,2.73
2019-05-03T01:03:52.717Z,3.63
2019-05-03T01:06:18.635Z,4.50
2019-05-03T01:08:44.672Z,3.57
2019-05-03T01:11:12.352Z,2.77
2019-05-03T01:13:38.541Z,3.00
2019-05-03T01:16:06.431Z,2.40
2019-05-03T01:18:32.532Z,4.23
2019-05-03T01:20:58.629Z,4.00
2019-05-03T01:23:24.594Z,3.67
2019-05-03T01:25:51.673Z,3.43
2019-05-03T01:28:17.811Z,3.90
2019-05-03T01:30:44.243Z,3.57
2019-05-03T01:33:12.013Z,2.47
2019-05-03T01:35:38.176Z,2.87
2019-05-03T01:38:04.157Z,3.70
2019-05-03T01:40:30.184Z,3.60
2019-05-03T01:42:56.162Z,2.87
2019-05-03T01:45:22.764Z,3.60
2019-05-03T01:48:02.839Z,2.90
2019-05-03T01:50:33.546Z,4.20
2019-05-03T01:53:01.985Z,3.33
2019-05-03T01:55:46.579Z,3.77
2019-05-03T01:58:12.646Z,3.27
2019-05-03T02:00:38.661Z,4.93
2019-05-03T02:03:06.546Z,2.37
2019-05-03T02:05:43.029Z,4.93
2019-05-03T02:08:12.487Z,3.60
2019-05-03T02:10:38.372Z,4.27
2019-05-03T02:13:04.451Z,3.87
2019-05-03T02:15:32.561Z,3.33
2019-05-03T02:17:58.460Z,3.30
2019-05-03T02:20:24.968Z,3.40
2019-05-03T02:22:52.172Z,4.47
2019-05-03T02:25:18.431Z,3.00
2019-05-03T02:27:44.576Z,3.70
2019-05-03T02:30:13.729Z,3.30
2019-05-03T02:32:38.850Z,2.87
2019-05-03T02:35:05.529Z,3.20
2019-05-03T02:37:32.992Z,5.03
2019-05-03T02:39:59.519Z,3.20
2019-05-03T02:42:26.485Z,3.30
2019-05-03T02:44:55.141Z,3.23
2019-05-03T02:47:28.917Z,5.13
2019-05-03T02:49:56.874Z,5.17
2019-05-03T02:52:36.492Z,3.10
2019-05-03T02:55:06.068Z,2.90
2019-05-03T02:57:35.031Z,4.00
2019-05-03T03:00:00.283Z,3.47
2019-05-03T03:02:27.158Z,3.07
2019-05-03T03:04:56.169Z,4.13
2019-05-03T03:07:22.205Z,5.20
2019-05-03T03:09:48.540Z,3.60
2019-05-03T03:12:15.345Z,3.17
2019-05-03T03:14:45.532Z,3.27
2019-05-03T03:17:14.934Z,3.07
2019-05-03T03:19:41.980Z,4.87
2019-05-03T03:22:09.995Z,4.17
2019-05-03T03:24:39.085Z,4.40
2019-05-03T03:27:08.381Z,4.73
2019-05-03T03:29:35.946Z,4.07
2019-05-03T03:32:19.357Z,3.40
2019-05-03T03:35:11.385Z,5.70
2019-05-03T03:37:32.078Z,3.50
2019-05-03T03:39:58.159Z,3.20
2019-05-03T03:42:25.181Z,4.37
2019-05-03T03:44:51.636Z,5.40
2019-05-03T03:47:19.930Z,4.07
2019-05-03T03:49:47.035Z,3.87
2019-05-03T03:52:15.872Z,4.33
2019-05-03T03:54:42.561Z,3.47
2019-05-03T03:57:12.332Z,3.80
2019-05-03T03:59:38.416Z,4.07
2019-05-03T04:02:05.966Z,3.27
2019-05-03T04:04:32.341Z,3.73
2019-05-03T04:07:01.237Z,3.80
2019-05-03T04:09:26.833Z,3.80
2019-05-03T04:11:56.426Z,4.20
2019-05-03T04:14:25.428Z,4.20
2019-05-03T04:17:08.644Z,4.77
2019-05-03T04:19:39.477Z,3.93
2019-05-03T04:22:06.011Z,3.60
2019-05-03T04:24:35.175Z,4.90
2019-05-03T04:27:15.555Z,3.93
2019-05-03T04:29:35.586Z,4.73
2019-05-03T04:32:05.799Z,3.60
2019-05-03T04:34:31.018Z,4.90
2019-05-03T04:36:57.138Z,3.33
2019-05-03T04:39:25.582Z,3.70
2019-05-03T04:41:51.253Z,3.27
2019-05-03T04:44:17.254Z,3.90
2019-05-03T04:46:43.260Z,3.97
2019-05-03T04:49:09.262Z,3.20
2019-05-03T04:51:35.285Z,3.60
2019-05-03T04:54:19.764Z,3.90
2019-05-03T04:56:46.494Z,3.50
2019-05-03T04:59:12.794Z,3.70
2019-05-03T05:01:39.972Z,4.10
2019-05-03T05:04:05.986Z,3.53
2019-05-03T05:06:31.972Z,3.40
2019-05-03T05:08:58.015Z,3.20
2019-05-03T05:11:26.233Z,3.30
2019-05-03T05:13:51.920Z,4.23
2019-05-03T05:16:17.889Z,5.03
2019-05-03T05:18:45.863Z,3.27
2019-05-03T05:21:16.344Z,4.50
2019-05-03T05:24:01.899Z,3.23
2019-05-03T05:26:44.681Z,3.13
2019-05-03T05:29:18.508Z,4.10
2019-05-03T05:31:44.674Z,4.87
2019-05-03T05:34:10.752Z,3.77
2019-05-03T05:36:36.756Z,3.60
2019-05-03T05:39:05.239Z,3.50
2019-05-03T05:41:31.410Z,4.07
2019-05-03T05:43:57.434Z,3.20
2019-05-03T05:46:25.372Z,3.93
2019-05-03T05:48:53.151Z,4.30
2019-05-03T05:51:19.138Z,4.20
2019-05-03T05:53:45.162Z,3.73
2019-05-03T05:56:25.159Z,5.30
2019-05-03T05:58:55.249Z,2.93
2019-05-03T06:01:24.893Z,4.13
2019-05-03T06:03:51.056Z,4.60
2019-05-03T06:06:30.840Z,4.33
2019-05-03T06:08:58.793Z,4.00
2019-05-03T06:11:32.457Z,4.47
2019-05-03T06:14:00.740Z,5.00
2019-05-03T06:16:28.866Z,3.77
2019-05-03T06:18:56.748Z,4.60
2019-05-03T06:21:27.387Z,3.97
2019-05-03T06:24:11.792Z,3.47
2019-05-03T06:26:48.702Z,3.00
2019-05-03T06:29:15.062Z,3.63
2019-05-03T06:31:45.778Z,4.40
2019-05-03T06:34:12.395Z,2.97
2019-05-03T06:36:39.857Z,3.53
2019-05-03T06:39:08.426Z,3.33
2019-05-03T06:41:35.269Z,3.70
2019-05-03T06:44:01.372Z,4.00
2019-05-03T06:46:45.566Z,4.00
2019-05-03T06:49:15.399Z,3.70
2019-05-03T06:51:47.774Z,3.27
2019-05-03T06:54:10.134Z,4.33
2019-05-03T06:56:36.407Z,3.83
2019-05-03T06:59:02.980Z,5.23
2019-05-03T07:01:30.884Z,3.87
2019-05-03T07:03:58.757Z,4.30
2019-05-03T07:06:45.103Z,4.07
2019-05-03T07:09:18.931Z,3.67
2019-05-03T07:11:45.198Z,4.90
2019-05-03T07:14:11.327Z,3.60
2019-05-03T07:16:37.342Z,4.80
2019-05-03T07:19:04.462Z,4.77
2019-05-03T07:21:30.700Z,4.43
2019-05-03T07:23:56.813Z,4.53
2019-05-03T07:26:22.856Z,3.83
2019-05-03T07:28:50.146Z,3.03
2019-05-03T07:31:16.436Z,3.93
2019-05-03T07:33:44.510Z,3.07
2019-05-03T07:36:10.443Z,3.80
2019-05-03T07:38:36.427Z,3.30
2019-05-03T07:41:02.444Z,3.60
2019-05-03T07:43:28.622Z,3.10
2019-05-03T07:45:55.229Z,4.17
2019-05-03T07:48:21.811Z,4.60
2019-05-03T07:50:47.776Z,3.93
2019-05-03T07:53:15.043Z,3.27
2019-05-03T07:55:57.789Z,4.30
2019-05-03T07:58:28.302Z,3.30
2019-05-03T08:01:06.350Z,3.20
2019-05-03T08:03:27.463Z,4.07
2019-05-03T08:05:55.216Z,4.20
2019-05-03T08:08:21.392Z,4.90
2019-05-03T08:10:47.704Z,4.43
2019-05-03T08:13:15.051Z,3.53
2019-05-03T08:15:41.740Z,4.33
2019-05-03T08:18:07.976Z,2.73
2019-05-03T08:20:35.052Z,4.60
2019-05-03T08:23:01.200Z,3.37
2019-05-03T08:25:27.190Z,4.00
2019-05-03T08:27:54.879Z,3.13
2019-05-03T08:30:25.417Z,3.47
2019-05-03T08:33:02.258Z,3.00
2019-05-03T08:35:30.289Z,2.70
2019-05-03T08:37:57.860Z,3.33
2019-05-03T08:40:25.977Z,3.13
2019-05-03T08:42:52.041Z,3.40
2019-05-03T08:45:18.234Z,2.63
2019-05-03T08:47:45.011Z,3.67
2019-05-03T08:50:11.281Z,2.60
2019-05-03T08:52:37.335Z,3.27
2019-05-03T08:55:05.296Z,2.77
2019-05-03T08:57:31.374Z,3.70
2019-05-03T08:59:57.455Z,3.10
2019-05-03T09:02:25.571Z,5.10
2019-05-03T09:04:51.385Z,2.90
2019-05-03T09:07:17.549Z,2.70
2019-05-03T09:09:48.314Z,2.73
2019-05-03T09:12:14.590Z,1.97
2019-05-03T09:14:45.506Z,2.93
2019-05-03T09:17:08.846Z,2.30
2019-05-03T09:19:35.076Z,2.03
2019-05-03T09:22:01.061Z,2.80
2019-05-03T09:24:27.054Z,2.67
2019-05-03T09:26:53.066Z,2.77
2019-05-03T09:29:19.046Z,2.53
2019-05-03T09:31:45.026Z,2.50
2019-05-03T09:34:11.083Z,3.17
2019-05-03T09:36:37.091Z,3.20
2019-05-03T09:39:05.724Z,3.30
2019-05-03T09:41:31.730Z,2.70
2019-05-03T09:43:57.729Z,2.53
2019-05-03T09:46:26.320Z,2.60
2019-05-03T09:48:51.711Z,2.10
2019-05-03T09:51:17.801Z,2.07
2019-05-03T09:53:45.760Z,2.53
2019-05-03T09:56:11.763Z,2.33
2019-05-03T09:58:38.211Z,2.77
2019-05-03T10:01:06.215Z,2.53
2019-05-03T10:03:32.240Z,2.60
2019-05-03T10:05:58.220Z,2.73
2019-05-03T10:08:25.503Z,2.80
2019-05-03T10:11:09.609Z,2.60
2019-05-03T10:13:35.942Z,2.40
2019-05-03T10:16:01.905Z,2.80
2019-05-03T10:18:27.947Z,2.30
2019-05-03T10:20:56.160Z,2.50
2019-05-03T10:23:29.401Z,2.27
2019-05-03T10:25:55.428Z,2.37
2019-05-03T10:28:21.464Z,2.30
2019-05-03T10:30:47.436Z,2.20
2019-05-03T10:33:15.664Z,3.10
2019-05-03T10:35:41.773Z,2.43
2019-05-03T10:38:07.760Z,2.07
2019-05-03T10:40:35.654Z,2.00
2019-05-03T10:43:02.252Z,2.40
2019-05-03T10:45:28.309Z,2.30
2019-05-03T10:47:54.336Z,1.90
2019-05-03T10:50:20.352Z,2.43
2019-05-03T10:52:48.272Z,2.50
2019-05-03T10:55:15.877Z,2.63
2019-05-03T10:57:44.917Z,2.77
2019-05-03T11:00:40.902Z,1.93
2019-05-03T11:02:47.648Z,3.07
2019-05-03T11:05:14.608Z,1.70
2019-05-03T11:07:40.924Z,2.50
2019-05-03T11:10:07.074Z,2.20
2019-05-03T11:12:34.711Z,2.87
2019-05-03T11:15:00.872Z,4.00
2019-05-03T11:17:26.891Z,2.30
2019-05-03T11:19:54.732Z,2.07
2019-05-03T11:22:20.838Z,1.70
2019-05-03T11:24:46.857Z,1.70
2019-05-03T11:27:24.818Z,1.90
2019-05-03T11:29:50.955Z,2.40
2019-05-03T11:32:29.466Z,1.90
2019-05-03T11:35:04.576Z,1.77
2019-05-03T11:37:38.387Z,2.20
2019-05-03T11:40:06.021Z,1.60
2019-05-03T11:42:32.048Z,2.10
2019-05-03T11:44:58.368Z,1.80
2019-05-03T11:47:25.581Z,2.20
2019-05-03T11:49:54.345Z,1.93
2019-05-03T11:52:20.197Z,2.37
2019-05-03T11:54:46.207Z,6.63
2019-05-03T11:57:15.740Z,4.83
2019-05-03T11:59:41.936Z,3.43
2019-05-03T12:02:15.527Z,2.30
2019-05-03T12:04:41.515Z,2.00
2019-05-03T12:07:07.600Z,1.70
2019-05-03T12:09:33.615Z,1.77
2019-05-03T12:11:59.632Z,3.03
2019-05-03T12:14:25.662Z,2.13
2019-05-03T12:17:14.540Z,2.37
2019-05-03T12:19:30.133Z,1.60
2019-05-03T12:21:52.958Z,1.33
2019-05-03T12:24:19.656Z,1.60
2019-05-03T12:26:47.048Z,1.63
2019-05-03T12:29:15.241Z,1.27
2019-05-03T12:31:41.137Z,1.33
2019-05-03T12:34:07.132Z,1.63
2019-05-03T12:36:36.789Z,2.20
2019-05-03T12:39:01.041Z,1.50
2019-05-03T12:41:27.120Z,1.70
2019-05-03T12:43:55.036Z,2.00
2019-05-03T12:46:21.087Z,1.53
2019-05-03T12:48:47.396Z,2.10
2019-05-03T12:51:15.237Z,1.80
2019-05-03T12:53:41.317Z,2.20
2019-05-03T12:56:11.792Z,1.60
2019-05-03T12:58:45.526Z,2.13
2019-05-03T13:01:15.834Z,2.10
2019-05-03T13:03:44.616Z,2.23
2019-05-03T13:06:10.778Z,2.60
2019-05-03T13:08:39.094Z,1.87
2019-05-03T13:11:05.842Z,2.10
2019-05-03T13:13:32.021Z,1.83
2019-05-03T13:15:58.028Z,1.90
2019-05-03T13:18:25.237Z,1.70
2019-05-03T13:20:51.621Z,1.37
2019-05-03T13:23:17.631Z,1.90
2019-05-03T13:25:44.797Z,2.27
2019-05-03T13:28:10.932Z,2.10
2019-05-03T13:30:37.096Z,2.00
2019-05-03T13:33:03.190Z,1.97
2019-05-03T13:35:31.180Z,2.30
2019-05-03T13:37:59.753Z,2.30
2019-05-03T13:40:25.773Z,2.20
2019-05-03T13:42:57.736Z,1.83
2019-05-03T13:45:19.930Z,1.90
2019-05-03T13:47:46.086Z,2.20
2019-05-03T13:50:12.279Z,1.90
2019-05-03T13:52:39.649Z,2.07
2019-05-03T13:55:06.428Z,1.90
2019-05-03T13:57:32.428Z,2.30
2019-05-03T13:59:58.449Z,1.77
2019-05-03T14:02:24.465Z,1.60
2019-05-03T14:04:52.938Z,1.90
2019-05-03T14:07:18.358Z,2.00
2019-05-03T14:09:45.265Z,1.70
2019-05-03T14:12:11.839Z,2.93
2019-05-03T14:14:55.360Z,1.83
2019-05-03T14:17:22.010Z,1.90
2019-05-03T14:19:50.179Z,2.80
2019-05-03T14:22:16.766Z,1.93
2019-05-03T14:24:44.477Z,2.70
2019-05-03T14:27:10.776Z,2.10
2019-05-03T14:29:36.796Z,1.73
2019-05-03T14:32:05.312Z,2.20
2019-05-03T14:34:31.380Z,2.43
2019-05-03T14:36:57.366Z,2.97
2019-05-03T14:39:25.202Z,1.70
2019-05-03T14:41:51.379Z,2.00
2019-05-03T14:44:18.275Z,2.77
2019-05-03T14:46:45.825Z,2.03
2019-05-03T14:49:12.116Z,1.87
2019-05-03T14:51:38.234Z,1.70
2019-05-03T14:54:05.551Z,1.93
2019-05-03T14:56:36.120Z,1.67
2019-05-03T14:59:20.136Z,1.70
2019-05-03T15:01:48.108Z,2.30
2019-05-03T15:04:15.141Z,2.30
2019-05-03T15:06:41.325Z,2.23
2019-05-03T15:09:07.353Z,2.03
2019-05-03T15:11:34.539Z,1.73
2019-05-03T15:14:00.785Z,2.40
2019-05-03T15:16:26.824Z,2.53
2019-05-03T15:18:54.781Z,2.30
2019-05-03T15:21:20.728Z,1.90
2019-05-03T15:23:46.788Z,1.77
2019-05-03T15:26:12.793Z,2.00
2019-05-03T15:28:38.780Z,2.07
2019-05-03T15:31:04.898Z,1.80
2019-05-03T15:33:30.964Z,1.87
2019-05-03T15:35:57.148Z,1.87
2019-05-03T15:38:23.232Z,2.40
2019-05-03T15:40:49.446Z,3.00
2019-05-03T15:43:19.861Z,1.87
2019-05-03T15:46:02.469Z,2.30
2019-05-03T15:48:30.391Z,2.20
2019-05-03T15:50:56.429Z,1.87
2019-05-03T15:53:22.404Z,1.83
2019-05-03T15:55:48.438Z,2.73
2019-05-03T15:58:15.375Z,2.70
2019-05-03T16:00:41.506Z,2.03
2019-05-03T16:03:10.466Z,2.20
2019-05-03T16:05:35.578Z,2.37
2019-05-03T16:08:01.730Z,2.07
2019-05-03T16:10:27.962Z,2.17
2019-05-03T16:12:54.585Z,2.00
2019-05-03T16:15:20.715Z,2.73
2019-05-03T16:17:46.698Z,2.23
2019-05-03T16:20:14.399Z,2.10
2019-05-03T16:22:40.724Z,1.90
2019-05-03T16:25:08.683Z,2.73
2019-05-03T16:27:36.859Z,1.97
2019-05-03T16:30:08.624Z,1.80
2019-05-03T16:32:36.476Z,2.27
2019-05-03T16:35:04.527Z,2.20
2019-05-03T16:37:34.427Z,1.70
2019-05-03T16:40:00.709Z,2.27
2019-05-03T16:42:26.758Z,2.00
2019-05-03T16:44:52.754Z,2.00
2019-05-03T16:47:18.824Z,1.60
2019-05-03T16:49:45.035Z,2.20
2019-05-03T16:52:12.281Z,2.33
2019-05-03T16:54:38.591Z,2.20
2019-05-03T16:57:05.800Z,2.00
2019-05-03T16:59:32.322Z,2.30
2019-05-03T17:01:58.423Z,2.33
2019-05-03T17:04:32.202Z,2.00
2019-05-03T17:07:12.086Z,2.70
2019-05-03T17:09:40.137Z,2.47
2019-05-03T17:12:08.279Z,2.70
2019-05-03T17:14:34.478Z,2.20
2019-05-03T17:17:00.697Z,2.03
2019-05-03T17:19:26.694Z,2.57
2019-05-03T17:21:54.708Z,2.50
2019-05-03T17:24:20.772Z,2.47
2019-05-03T17:26:46.923Z,2.27
2019-05-03T17:29:13.016Z,2.50
2019-05-03T17:31:38.991Z,2.30
2019-05-03T17:34:05.520Z,2.80
2019-05-03T17:36:34.392Z,2.57
2019-05-03T17:39:04.363Z,2.27
2019-05-03T17:41:48.727Z,2.20
2019-05-03T17:44:19.514Z,2.83
2019-05-03T17:46:45.691Z,3.70
2019-05-03T17:49:11.697Z,2.50
2019-05-03T17:51:42.398Z,2.70
2019-05-03T17:54:10.412Z,2.40
2019-05-03T17:56:55.014Z,2.03
2019-05-03T17:59:24.329Z,2.23
2019-05-03T18:01:55.431Z,2.37
2019-05-03T18:04:29.292Z,2.40
2019-05-03T18:06:57.206Z,1.77
2019-05-03T18:09:31.133Z,2.90
2019-05-03T18:11:59.009Z,2.40
2019-05-03T18:14:25.130Z,2.40
2019-05-03T18:16:51.340Z,2.73
2019-05-03T18:19:17.324Z,2.03
2019-05-03T18:21:43.458Z,2.50
2019-05-03T18:24:09.777Z,2.80
2019-05-03T18:26:35.763Z,2.23
2019-05-03T18:29:01.846Z,3.20
2019-05-03T18:31:27.837Z,2.73
2019-05-03T18:33:54.731Z,2.37
2019-05-03T18:36:20.954Z,3.00
2019-05-03T18:38:46.948Z,3.00
2019-05-03T18:41:13.360Z,2.80
2019-05-03T18:43:47.117Z,2.80
2019-05-03T18:46:17.700Z,2.60
2019-05-03T18:48:44.547Z,3.00
2019-05-03T18:51:10.718Z,3.30
2019-05-03T18:53:36.835Z,3.23
2019-05-03T18:56:04.527Z,2.70
2019-05-03T18:58:30.617Z,2.83
2019-05-03T19:00:56.969Z,2.57
2019-05-03T19:03:25.018Z,2.23
2019-05-03T19:05:54.733Z,2.73
2019-05-03T19:08:24.700Z,3.10
2019-05-03T19:11:04.640Z,2.50
2019-05-03T19:13:32.619Z,2.70
2019-05-03T19:16:00.641Z,3.80
2019-05-03T19:18:28.608Z,3.30
2019-05-03T19:20:55.097Z,2.47
2019-05-03T19:23:21.270Z,2.60
2019-05-03T19:25:49.576Z,3.13
2019-05-03T19:28:16.719Z,3.33
2019-05-03T19:30:44.475Z,3.10
2019-05-03T19:33:10.604Z,2.80
2019-05-03T19:35:36.736Z,3.00
2019-05-03T19:38:04.837Z,3.90
2019-05-03T19:40:30.726Z,3.40
2019-05-03T19:42:56.730Z,3.57
2019-05-03T19:45:24.665Z,2.80
2019-05-03T19:47:50.725Z,2.93
2019-05-03T19:50:16.996Z,3.10
2019-05-03T19:52:56.723Z,3.10
2019-05-03T19:55:22.777Z,2.50
2019-05-03T19:57:48.792Z,3.20
2019-05-03T20:00:15.251Z,2.97
2019-05-03T20:02:45.269Z,2.77
2019-05-03T20:05:27.712Z,3.43
2019-05-03T20:08:07.256Z,2.80
2019-05-03T20:10:35.130Z,2.80
2019-05-03T20:13:01.378Z,2.87
2019-05-03T20:15:27.344Z,2.67
2019-05-03T20:17:59.142Z,2.50
2019-05-03T20:20:21.230Z,2.40
2019-05-03T20:22:47.784Z,3.00
2019-05-03T20:25:15.172Z,2.10
2019-05-03T20:27:41.454Z,2.07
2019-05-03T20:30:07.757Z,2.30
2019-05-03T20:32:34.462Z,2.17
2019-05-03T20:35:11.122Z,2.60
2019-05-03T20:37:28.752Z,2.23
2019-05-03T20:39:54.748Z,2.50
2019-05-03T20:42:24.604Z,2.30
2019-05-03T20:44:57.145Z,2.20
2019-05-03T20:47:25.329Z,2.70
2019-05-03T20:50:09.493Z,1.87
2019-05-03T20:52:35.566Z,2.47
2019-05-03T20:55:02.139Z,1.90
2019-05-03T20:57:28.116Z,2.30
2019-05-03T20:59:54.493Z,2.30
2019-05-03T21:02:20.548Z,2.50
2019-05-03T21:04:46.593Z,2.67
2019-05-03T21:07:12.795Z,2.20
2019-05-03T21:09:38.918Z,3.60
2019-05-03T21:12:05.215Z,2.57
2019-05-03T21:14:31.295Z,2.60
2019-05-03T21:17:11.156Z,2.30
2019-05-03T21:19:45.244Z,3.10
2019-05-03T21:22:14.399Z,3.30
2019-05-03T21:24:42.424Z,3.80
2019-05-03T21:27:08.392Z,2.97
2019-05-03T21:29:36.314Z,2.90
2019-05-03T21:32:04.512Z,2.90
2019-05-03T21:34:30.352Z,3.17
2019-05-03T21:36:56.377Z,3.00
2019-05-03T21:39:24.501Z,3.37
2019-05-03T21:41:50.232Z,1.90
2019-05-03T21:44:29.722Z,2.53
2019-05-03T21:46:55.960Z,2.40
2019-05-03T21:49:38.780Z,3.23
2019-05-03T21:52:05.043Z,2.33
2019-05-03T21:54:31.098Z,3.17
2019-05-03T21:56:58.013Z,3.10
2019-05-03T21:59:26.393Z,3.90
2019-05-03T22:01:54.583Z,3.10
2019-05-03T22:04:20.232Z,2.87
2019-05-03T22:06:46.312Z,3.30
2019-05-03T22:09:12.300Z,3.10
2019-05-03T22:11:38.341Z,3.33
2019-05-03T22:14:06.252Z,2.50
2019-05-03T22:16:39.932Z,3.00
2019-05-03T22:19:05.935Z,3.57
2019-05-03T22:21:36.945Z,3.40
2019-05-03T22:24:11.012Z,3.00
2019-05-03T22:26:55.419Z,3.10
2019-05-03T22:29:21.429Z,3.27
2019-05-03T22:31:47.582Z,2.90
2019-05-03T22:34:15.125Z,3.10
2019-05-03T22:36:41.301Z,4.23
2019-05-03T22:39:07.272Z,3.47
2019-05-03T22:41:34.791Z,2.57
2019-05-03T22:44:00.896Z,3.13
2019-05-03T22:46:26.921Z,3.37
2019-05-03T22:48:52.946Z,2.97
2019-05-03T22:51:19.030Z,2.73
2019-05-03T22:53:45.008Z,3.43
2019-05-03T22:56:10.979Z,3.07
2019-05-03T22:58:37.011Z,2.57
2019-05-03T23:01:03.101Z,2.83
2019-05-03T23:03:31.036Z,3.07
2019-05-03T23:05:57.046Z,3.23
2019-05-03T23:08:25.161Z,3.20
2019-05-03T23:10:50.984Z,2.83
2019-05-03T23:13:16.994Z,3.13
2019-05-03T23:15:42.989Z,3.23
2019-05-03T23:18:09.046Z,3.03
2019-05-03T23:20:48.840Z,2.80
2019-05-03T23:23:33.056Z,3.33
2019-05-03T23:25:59.097Z,3.87
2019-05-03T23:28:25.099Z,4.20
2019-05-03T23:30:51.328Z,4.37
2019-05-03T23:33:17.339Z,4.30
2019-05-03T23:35:44.393Z,4.30
2019-05-03T23:38:10.553Z,3.70
2019-05-03T23:40:36.585Z,3.93
2019-05-03T23:43:02.605Z,4.03
2019-05-03T23:45:28.685Z,3.80
2019-05-03T23:47:54.695Z,3.70
2019-05-03T23:50:21.660Z,3.50
2019-05-03T23:52:47.641Z,4.03
2019-05-03T23:55:18.776Z,4.20
2019-05-03T23:57:44.838Z,4.60
